Time;durP1;ratioP1;P1;durP2;ratioP2;P2;SDS_P1;SDS_P2;PMS_P1;PMS_P2;Temp;Humidity;BMP_temperature;BMP_pressure;BME280_temperature;BME280_humidity;BME280_pressure;Samples;Min_cycle;Max_cycle;Signal;HPM_P1;HPM_P2
2021/09/25 00:00:27;;;;;;;6.67;2.52;;;;;;;13.58;75.95;96592.34;1674374;84;21025;-81
2021/09/25 00:02:51;;;;;;;4.47;2.10;;;;;;;13.58;74.61;96592.34;1655040;84;21019;-81
2021/09/25 00:05:17;;;;;;;2.72;2.40;;;;;;;13.59;75.72;96597.36;1681705;84;21383;-81
2021/09/25 00:07:42;;;;;;;2.90;2.17;;;;;;;13.57;75.85;96590.73;1683034;84;21071;-81
2021/09/25 00:10:10;;;;;;;2.40;1.90;;;;;;;13.56;75.99;96593.03;1683307;84;20989;-81
2021/09/25 00:12:36;;;;;;;5.25;2.10;;;;;;;13.57;75.75;96590.73;1683990;84;21140;-81
2021/09/25 00:15:03;;;;;;;4.30;2.27;;;;;;;13.60;75.30;96591.64;1682600;83;21419;-81
2021/09/25 00:17:29;;;;;;;3.08;2.20;;;;;;;13.64;75.73;96589.73;1683937;84;21012;-81
2021/09/25 00:19:55;;;;;;;3.42;2.10;;;;;;;13.63;76.08;96587.33;1666314;84;21036;-81
2021/09/25 00:22:20;;;;;;;2.22;1.72;;;;;;;13.59;76.26;96584.31;1695306;83;20985;-80
2021/09/25 00:24:46;;;;;;;6.00;1.77;;;;;;;13.59;75.55;96580.89;1669058;84;21087;-81
2021/09/25 00:27:12;;;;;;;2.77;1.95;;;;;;;13.58;76.05;96570.95;1697423;84;20958;-81
2021/09/25 00:29:38;;;;;;;5.37;2.33;;;;;;;13.60;76.34;96583.81;1665206;84;21120;-81
2021/09/25 00:32:04;;;;;;;3.77;1.98;;;;;;;13.59;76.24;96572.56;1682855;84;21116;-81
2021/09/25 00:34:29;;;;;;;3.58;2.00;;;;;;;13.57;76.26;96570.65;1686091;84;21494;-81
2021/09/25 00:36:56;;;;;;;3.52;2.00;;;;;;;13.57;76.84;96573.26;1658510;84;21080;-81
2021/09/25 00:39:23;;;;;;;4.22;2.10;;;;;;;13.57;76.77;96577.17;1673467;83;21065;-81
2021/09/25 00:41:49;;;;;;;2.52;2.15;;;;;;;13.59;76.53;96573.87;1682493;84;21056;-81
2021/09/25 00:44:15;;;;;;;2.95;2.00;;;;;;;13.63;76.70;96569.05;1682833;84;21442;-81
2021/09/25 00:46:41;;;;;;;3.40;2.20;;;;;;;13.64;76.61;96570.16;1685238;84;21020;-81
2021/09/25 00:49:06;;;;;;;3.98;2.40;;;;;;;13.61;76.34;96564.03;1671400;84;21091;-81
2021/09/25 00:51:32;;;;;;;4.25;2.17;;;;;;;13.61;76.71;96568.45;1685350;84;21024;-81
2021/09/25 00:53:58;;;;;;;2.98;1.72;;;;;;;13.59;76.92;96568.64;1671073;84;20965;-81
2021/09/25 00:56:24;;;;;;;3.08;2.02;;;;;;;13.59;76.93;96570.45;1683457;84;21324;-81
2021/09/25 00:58:51;;;;;;;4.28;1.87;;;;;;;13.59;76.79;96571.76;1663564;84;21021;-81
2021/09/25 01:01:17;;;;;;;3.20;2.12;;;;;;;13.59;76.79;96563.92;1677645;83;21462;-81
2021/09/25 01:03:42;;;;;;;2.60;2.17;;;;;;;13.59;76.22;96565.23;1679857;84;21027;-81
2021/09/25 01:06:08;;;;;;;2.60;2.00;;;;;;;13.60;76.46;96563.73;1681717;83;21008;-81
2021/09/25 01:08:34;;;;;;;3.67;1.75;;;;;;;13.59;77.10;96562.12;1683461;84;21020;-81
2021/09/25 01:10:59;;;;;;;2.52;1.90;;;;;;;13.59;77.01;96566.53;1677011;84;20995;-81
2021/09/25 01:13:25;;;;;;;5.35;1.70;;;;;;;13.60;76.97;96569.45;1678120;83;21453;-81
2021/09/25 01:15:51;;;;;;;3.00;2.02;;;;;;;13.61;76.88;96566.64;1660134;84;21473;-81
2021/09/25 01:18:17;;;;;;;6.37;1.90;;;;;;;13.63;77.00;96569.86;1687367;83;20996;-81
2021/09/25 01:20:43;;;;;;;3.12;2.35;;;;;;;13.64;77.21;96564.94;1675851;84;21380;-81
2021/09/25 01:23:09;;;;;;;2.25;1.80;;;;;;;13.64;77.19;96571.97;1699663;84;21100;-81
2021/09/25 01:25:35;;;;;;;2.45;1.60;;;;;;;13.62;77.00;96568.25;1670218;84;21011;-81
2021/09/25 01:28:02;;;;;;;2.52;1.60;;;;;;;13.65;76.95;96573.07;1678106;84;21004;-81
2021/09/25 01:30:28;;;;;;;3.15;2.55;;;;;;;13.68;76.24;96575.31;1679485;83;21063;-81
2021/09/25 01:32:54;;;;;;;4.25;2.40;;;;;;;13.71;75.55;96574.92;1687496;84;21001;-81
2021/09/25 01:35:22;;;;;;;2.60;1.90;;;;;;;13.77;75.09;96570.70;1660361;83;21561;-81
2021/09/25 01:37:49;;;;;;;4.00;1.85;;;;;;;13.80;75.59;96568.50;1673806;83;21005;-81
2021/09/25 01:40:15;;;;;;;2.72;1.85;;;;;;;13.78;76.43;96565.28;1673598;84;21430;-81
2021/09/25 01:42:42;;;;;;;3.40;1.65;;;;;;;13.77;75.02;96570.20;1672450;85;21046;-81
2021/09/25 01:45:09;;;;;;;3.25;2.12;;;;;;;13.81;74.63;96570.11;1687733;84;21013;-81
2021/09/25 01:47:35;;;;;;;2.83;2.00;;;;;;;13.87;75.20;96576.38;1667358;83;21383;-81
2021/09/25 01:50:03;;;;;;;3.72;2.05;;;;;;;13.89;75.12;96573.05;1657771;85;21027;-81
2021/09/25 01:52:29;;;;;;;2.75;1.80;;;;;;;13.91;75.54;96571.55;1700431;83;21452;-81
2021/09/25 01:54:54;;;;;;;2.35;1.70;;;;;;;13.89;75.58;96570.45;1679536;84;21132;-81
2021/09/25 01:57:20;;;;;;;2.83;1.70;;;;;;;13.86;74.89;96570.84;1684317;84;21016;-81
2021/09/25 01:59:46;;;;;;;2.45;1.80;;;;;;;13.88;74.64;96563.61;1672043;84;21028;-81
2021/09/25 02:02:12;;;;;;;3.17;2.33;;;;;;;13.92;75.53;96562.70;1673113;84;21151;-81
2021/09/25 02:04:38;;;;;;;5.37;2.00;;;;;;;13.88;74.92;96563.61;1683114;84;21108;-81
2021/09/25 02:07:05;;;;;;;3.52;2.10;;;;;;;13.90;74.80;96551.66;1669511;84;21093;-81
2021/09/25 02:09:31;;;;;;;3.75;1.70;;;;;;;13.92;75.39;96561.41;1686380;84;21043;-81
2021/09/25 02:11:57;;;;;;;3.47;1.62;;;;;;;13.92;75.73;96558.79;1696250;84;21405;-81
2021/09/25 02:14:23;;;;;;;2.75;1.22;;;;;;;13.91;75.49;96552.77;1703829;84;21052;-81
2021/09/25 02:16:48;;;;;;;1.82;1.50;;;;;;;13.94;74.48;96554.17;1682323;84;21071;-81
2021/09/25 02:19:14;;;;;;;3.00;1.67;;;;;;;13.98;75.23;96543.62;1674884;84;21377;-81
2021/09/25 02:21:40;;;;;;;2.05;1.62;;;;;;;13.98;75.72;96547.03;1684186;83;20987;-81
2021/09/25 02:24:06;;;;;;;2.65;1.50;;;;;;;13.94;75.82;96552.36;1647977;84;21010;-81
2021/09/25 02:26:34;;;;;;;2.27;1.35;;;;;;;13.90;75.47;96557.69;1684112;84;21402;-81
2021/09/25 02:29:00;;;;;;;2.05;1.75;;;;;;;13.92;75.87;96561.41;1664679;84;21055;-81
2021/09/25 02:31:26;;;;;;;3.12;1.45;;;;;;;13.92;75.95;96556.17;1681648;84;21447;-81
2021/09/25 02:33:52;;;;;;;2.37;1.60;;;;;;;13.90;75.92;96561.60;1677053;84;21369;-81
2021/09/25 02:36:18;;;;;;;3.58;2.10;;;;;;;13.92;76.17;96558.79;1691909;84;20992;-80
2021/09/25 02:38:43;;;;;;;2.20;1.42;;;;;;;13.90;76.25;96566.02;1692211;83;21025;-81
2021/09/25 02:41:09;;;;;;;2.40;1.77;;;;;;;13.90;76.38;96569.44;1683836;84;21128;-81
2021/09/25 02:43:35;;;;;;;2.40;1.50;;;;;;;13.90;76.19;96571.25;1688339;84;21439;-81
2021/09/25 02:46:01;;;;;;;1.95;1.22;;;;;;;13.90;76.22;96569.44;1667761;83;21072;-81
2021/09/25 02:48:27;;;;;;;2.22;1.60;;;;;;;13.91;76.42;96571.05;1679138;84;21026;-81
2021/09/25 02:50:53;;;;;;;2.80;1.72;;;;;;;13.94;75.14;96571.15;1672040;84;21017;-81
2021/09/25 02:53:18;;;;;;;3.22;1.70;;;;;;;14.00;75.63;96565.95;1678667;85;21055;-81
2021/09/25 02:55:44;;;;;;;1.85;1.60;;;;;;;14.04;76.08;96567.66;1654132;84;21384;-81
2021/09/25 02:58:10;;;;;;;4.08;1.80;;;;;;;14.05;75.44;96565.35;1670338;84;21096;-81
2021/09/25 03:00:36;;;;;;;3.08;1.80;;;;;;;14.06;76.01;96564.34;1663587;84;21059;-81
2021/09/25 03:03:02;;;;;;;2.95;1.57;;;;;;;14.06;75.50;96569.57;1694807;83;21429;-81
2021/09/25 03:05:29;;;;;;;2.52;1.57;;;;;;;14.08;75.81;96572.78;1682721;84;21089;-81
2021/09/25 03:07:54;;;;;;;2.22;1.67;;;;;;;14.09;75.86;96576.50;1695568;83;21320;-81
2021/09/25 03:10:20;;;;;;;3.50;2.00;;;;;;;14.13;74.95;96569.88;1681988;84;21005;-81
2021/09/25 03:12:46;;;;;;;2.30;1.72;;;;;;;14.19;75.54;96573.52;1670457;84;21031;-81
2021/09/25 03:15:12;;;;;;;2.87;1.87;;;;;;;14.22;75.41;96575.73;1677129;84;21045;-81
2021/09/25 03:17:38;;;;;;;1.82;1.65;;;;;;;14.22;74.75;96579.64;1678003;84;21152;-81
2021/09/25 03:20:05;;;;;;;1.87;1.67;;;;;;;14.24;74.13;96584.17;1678269;84;21486;-81
2021/09/25 03:22:31;;;;;;;3.15;2.10;;;;;;;14.27;73.99;96579.84;1676575;84;21034;-80
2021/09/25 03:24:57;;;;;;;4.40;1.87;;;;;;;14.33;73.82;96585.59;1681997;84;21017;-81
2021/09/25 03:27:24;;;;;;;2.35;1.65;;;;;;;14.36;73.68;96582.58;1669774;84;21044;-81
2021/09/25 03:29:51;;;;;;;2.47;1.60;;;;;;;14.40;73.78;96581.16;1688453;84;21099;-81
2021/09/25 03:32:18;;;;;;;4.25;2.00;;;;;;;14.41;73.58;96589.31;1693393;84;21043;-81
2021/09/25 03:34:44;;;;;;;2.15;1.70;;;;;;;14.42;73.73;96573.92;1672605;84;21060;-80
2021/09/25 03:37:10;;;;;;;3.45;2.17;;;;;;;14.41;73.83;96577.55;1682021;84;21152;-81
2021/09/25 03:39:36;;;;;;;2.87;1.60;;;;;;;14.41;73.37;96580.16;1689299;83;21083;-81
2021/09/25 03:42:03;;;;;;;2.55;1.80;;;;;;;14.45;73.38;96578.47;1691686;84;21062;-81
2021/09/25 03:44:29;;;;;;;3.17;2.27;;;;;;;14.48;73.44;96573.67;1679760;84;21029;-81
2021/09/25 03:46:56;;;;;;;2.30;1.92;;;;;;;14.50;73.27;96576.89;1683590;84;21359;-81
2021/09/25 03:49:22;;;;;;;2.20;1.72;;;;;;;14.52;73.34;96580.60;1694104;83;21024;-81
2021/09/25 03:51:48;;;;;;;2.58;1.70;;;;;;;14.53;73.25;96583.52;1694272;84;21376;-81
2021/09/25 03:54:14;;;;;;;4.72;2.20;;;;;;;14.53;73.05;96580.40;1680788;84;21049;-81
2021/09/25 03:56:40;;;;;;;2.67;1.92;;;;;;;14.53;73.26;96584.83;1672881;84;20970;-81
2021/09/25 03:59:05;;;;;;;2.40;1.70;;;;;;;14.52;72.96;96580.09;1677116;84;20989;-81
2021/09/25 04:01:31;;;;;;;2.25;1.87;;;;;;;14.57;73.55;96579.48;1670478;84;21032;-81
2021/09/25 04:03:57;;;;;;;2.92;1.90;;;;;;;14.59;73.39;96587.42;1675765;85;21358;-81
2021/09/25 04:06:25;;;;;;;2.60;2.02;;;;;;;14.61;72.96;96588.53;1658739;84;21063;-81
2021/09/25 04:08:50;;;;;;;2.75;2.08;;;;;;;14.61;72.92;96588.03;1684406;84;20945;-81
2021/09/25 04:11:16;;;;;;;2.52;2.05;;;;;;;14.60;72.92;96589.03;1681238;84;21528;-81
2021/09/25 04:13:42;;;;;;;3.62;2.60;;;;;;;14.61;73.04;96591.95;1677870;82;21044;-81
2021/09/25 04:16:07;;;;;;;2.98;2.33;;;;;;;14.60;73.51;96592.16;1676592;84;21107;-81
2021/09/25 04:18:33;;;;;;;2.33;1.67;;;;;;;14.58;73.28;96591.55;1673811;84;21006;-81
2021/09/25 04:20:59;;;;;;;2.02;1.82;;;;;;;14.58;72.98;96591.55;1669088;84;21072;-81
2021/09/25 04:23:25;;;;;;;3.10;2.02;;;;;;;14.60;72.52;96592.16;1685064;84;21016;-81
2021/09/25 04:25:50;;;;;;;2.35;1.98;;;;;;;14.62;72.52;96591.45;1684410;84;21477;-81
2021/09/25 04:28:16;;;;;;;2.60;2.20;;;;;;;14.63;72.33;96591.23;1665384;84;21315;-81
2021/09/25 04:30:42;;;;;;;2.52;2.20;;;;;;;14.63;72.49;96595.16;1682657;83;21058;-81
2021/09/25 04:33:10;;;;;;;2.15;1.92;;;;;;;14.65;72.51;96598.41;1685382;84;21070;-81
2021/09/25 04:35:37;;;;;;;2.72;1.90;;;;;;;14.64;72.61;96600.73;1686939;83;21059;-81
2021/09/25 04:38:03;;;;;;;2.30;1.95;;;;;;;14.64;72.66;96601.20;1704845;84;21083;-81
2021/09/25 04:40:29;;;;;;;2.90;2.05;;;;;;;14.66;72.60;96608.37;1680880;84;20965;-81
2021/09/25 04:42:57;;;;;;;2.90;2.05;;;;;;;14.69;72.37;96606.14;1676778;84;21016;-81
2021/09/25 04:45:22;;;;;;;2.92;2.52;;;;;;;14.71;72.46;96608.05;1693691;84;21076;-81
2021/09/25 04:47:50;;;;;;;3.72;2.35;;;;;;;14.74;72.45;96614.69;1683033;84;21040;-81
2021/09/25 04:50:16;;;;;;;2.37;2.15;;;;;;;14.74;72.56;96608.66;1684521;84;22034;-80
2021/09/25 04:52:41;;;;;;;3.10;2.30;;;;;;;14.74;72.69;96617.80;1682866;84;21061;-81
2021/09/25 04:55:08;;;;;;;2.33;1.95;;;;;;;14.74;72.82;96621.73;1685048;84;21095;-81
2021/09/25 04:57:34;;;;;;;4.12;2.17;;;;;;;14.75;72.92;96629.88;1697556;84;21112;-81
2021/09/25 05:00:00;;;;;;;3.02;2.40;;;;;;;14.76;73.00;96621.02;1686103;84;21103;-81
2021/09/25 05:02:26;;;;;;;3.95;2.83;;;;;;;14.79;72.96;96625.34;1664484;84;21037;-81
2021/09/25 05:04:51;;;;;;;5.22;4.20;;;;;;;14.80;73.13;96624.33;1678765;84;21084;-81
2021/09/25 05:07:17;;;;;;;5.12;3.85;;;;;;;14.82;73.30;96627.58;1671357;84;21059;-81
2021/09/25 05:09:43;;;;;;;4.10;3.45;;;;;;;14.81;73.25;96623.35;1680954;84;21101;-81
2021/09/25 05:12:09;;;;;;;7.35;3.70;;;;;;;14.80;73.29;96628.25;1690372;83;21093;-81
2021/09/25 05:14:36;;;;;;;5.53;3.45;;;;;;;14.79;73.41;96626.64;1675076;84;21048;-81
2021/09/25 05:17:02;;;;;;;3.10;2.65;;;;;;;14.81;73.50;96625.16;1680393;84;21027;-81
2021/09/25 05:19:29;;;;;;;5.58;4.42;;;;;;;14.84;73.44;96627.38;1667768;84;21132;-81
2021/09/25 05:21:55;;;;;;;5.47;4.35;;;;;;;14.86;73.70;96623.54;1668353;84;21513;-81
2021/09/25 05:24:20;;;;;;;8.13;5.87;;;;;;;14.87;73.91;96625.15;1708650;83;21097;-81
2021/09/25 05:26:48;;;;;;;5.75;5.00;;;;;;;14.88;73.84;96626.75;1680754;83;21054;-83
2021/09/25 05:29:13;;;;;;;17.60;12.35;;;;;;;14.87;74.03;96630.38;1690978;83;21069;-81
2021/09/25 05:31:39;;;;;;;18.60;12.30;;;;;;;14.86;74.08;96626.16;1711300;83;21116;-82
2021/09/25 05:34:05;;;;;;;25.72;13.65;;;;;;;14.87;74.14;96634.30;1704746;84;21113;-81
2021/09/25 05:36:30;;;;;;;13.72;8.30;;;;;;;14.88;74.30;96633.80;1677141;83;21090;-82
2021/09/25 05:38:56;;;;;;;9.38;6.78;;;;;;;14.89;74.43;96638.83;1689213;84;21080;-81
2021/09/25 05:41:22;;;;;;;9.18;7.45;;;;;;;14.92;74.21;96634.50;1692961;84;21427;-81
2021/09/25 05:43:53;;;;;;;6.05;5.45;;;;;;;14.94;74.50;96636.41;1666144;83;21116;-82
2021/09/25 05:46:19;;;;;;;5.97;5.35;;;;;;;14.96;74.32;96645.35;1678458;84;21028;-81
2021/09/25 05:48:48;;;;;;;5.60;5.10;;;;;;;14.97;74.66;96650.91;1685279;84;21028;-81
2021/09/25 05:51:14;;;;;;;5.28;4.78;;;;;;;14.96;74.64;96651.39;1697157;83;21116;-82
2021/09/25 05:53:40;;;;;;;5.35;3.85;;;;;;;14.98;74.71;96655.94;1647052;85;21302;-82
2021/09/25 05:56:06;;;;;;;4.70;4.22;;;;;;;15.01;74.77;96651.61;1670345;84;21092;-81
2021/09/25 05:58:32;;;;;;;6.15;4.62;;;;;;;15.04;74.83;96653.02;1664059;84;20997;-82
2021/09/25 06:00:58;;;;;;;4.42;3.85;;;;;;;15.07;74.84;96660.45;1663523;84;21123;-82
2021/09/25 06:03:24;;;;;;;5.80;5.20;;;;;;;15.08;74.86;96657.33;1686710;84;21025;-80
2021/09/25 06:05:50;;;;;;;5.60;5.10;;;;;;;15.07;75.04;96655.22;1664142;84;21068;-82
2021/09/25 06:08:16;;;;;;;6.65;4.78;;;;;;;15.09;75.07;96655.02;1679143;84;21071;-81
2021/09/25 06:10:42;;;;;;;4.80;4.22;;;;;;;15.12;75.09;96652.78;1663474;84;21463;-81
2021/09/25 06:13:10;;;;;;;11.10;6.83;;;;;;;15.17;75.16;96656.92;1681043;83;21167;-81
2021/09/25 06:15:35;;;;;;;6.90;5.72;;;;;;;15.21;75.30;96652.89;1675221;84;21502;-81
2021/09/25 06:18:01;;;;;;;5.95;5.35;;;;;;;15.24;75.28;96658.21;1688218;83;21053;-82
2021/09/25 06:20:27;;;;;;;6.78;5.83;;;;;;;15.27;75.13;96659.11;1646412;85;21077;-81
2021/09/25 06:22:53;;;;;;;5.70;4.95;;;;;;;15.25;75.10;96663.75;1685185;84;21109;-81
2021/09/25 06:25:19;;;;;;;5.83;5.00;;;;;;;15.25;75.09;96667.67;1652573;83;21012;-82
2021/09/25 06:27:45;;;;;;;6.12;5.03;;;;;;;15.28;75.09;96672.50;1671133;84;21439;-85
2021/09/25 06:30:10;;;;;;;7.40;6.60;;;;;;;15.30;75.10;96670.00;1697532;84;21083;-83
2021/09/25 06:32:36;;;;;;;7.92;6.85;;;;;;;15.33;75.30;96668.78;1684308;84;20980;-82
2021/09/25 06:35:04;;;;;;;7.60;6.72;;;;;;;15.34;75.26;96673.01;1688035;84;21050;-82
2021/09/25 06:37:30;;;;;;;10.38;8.05;;;;;;;15.36;75.27;96672.80;1682560;84;21053;-85
2021/09/25 06:39:56;;;;;;;14.07;9.78;;;;;;;15.35;75.46;96675.92;1684190;84;21044;-80
2021/09/25 06:42:22;;;;;;;11.00;8.28;;;;;;;15.35;75.61;96669.38;1682820;84;21080;-84
2021/09/25 06:44:47;;;;;;;36.20;23.05;;;;;;;15.38;75.62;96671.59;1691764;84;21532;-81
2021/09/25 06:47:13;;;;;;;10.58;8.33;;;;;;;15.41;75.82;96675.60;1683714;84;21065;-82
2021/09/25 06:49:39;;;;;;;34.60;19.67;;;;;;;15.44;75.67;96674.69;1675253;84;21033;-82
2021/09/25 06:52:06;;;;;;;11.73;8.65;;;;;;;15.48;75.82;96679.03;1696087;84;21021;-81
2021/09/25 06:54:34;;;;;;;8.25;6.80;;;;;;;15.52;75.83;96671.05;1681801;84;21167;-82
2021/09/25 06:57:02;;;;;;;26.23;14.73;;;;;;;15.53;75.83;96671.35;1687439;84;21083;-80
2021/09/25 06:59:28;;;;;;;8.65;6.47;;;;;;;15.56;76.12;96670.94;1665957;85;22045;-81
2021/09/25 07:01:54;;;;;;;7.37;6.08;;;;;;;15.59;75.85;96675.28;1671290;85;21115;-81
2021/09/25 07:04:20;;;;;;;7.20;6.22;;;;;;;15.65;75.78;96678.91;1679783;84;21073;-81
2021/09/25 07:06:48;;;;;;;8.75;6.50;;;;;;;15.72;75.52;96676.27;1694848;84;21510;-81
2021/09/25 07:09:14;;;;;;;6.92;6.33;;;;;;;15.76;75.43;96677.45;1676541;83;21082;-81
2021/09/25 07:11:40;;;;;;;8.58;6.80;;;;;;;15.79;75.40;96683.61;1679907;84;21040;-81
2021/09/25 07:14:06;;;;;;;7.85;6.30;;;;;;;15.80;75.49;96679.47;1679433;84;21132;-81
2021/09/25 07:16:33;;;;;;;7.50;6.12;;;;;;;15.84;75.59;96681.16;1667250;84;21117;-82
2021/09/25 07:18:59;;;;;;;26.12;12.73;;;;;;;15.86;75.62;96679.14;1688828;84;21008;-81
2021/09/25 07:21:24;;;;;;;7.67;6.55;;;;;;;15.93;76.00;96690.89;1674042;84;21044;-81
2021/09/25 07:23:51;;;;;;;6.83;5.92;;;;;;;15.97;75.39;96691.60;1678031;84;21611;-82
2021/09/25 07:26:16;;;;;;;9.75;6.55;;;;;;;16.01;74.98;96691.98;1671658;84;21064;-81
2021/09/25 07:28:42;;;;;;;8.38;6.47;;;;;;;16.02;75.13;96695.70;1680447;84;22301;-81
2021/09/25 07:31:09;;;;;;;6.58;5.97;;;;;;;15.85;75.25;96665.74;1667687;84;21060;-82
2021/09/25 07:33:35;;;;;;;8.48;6.15;;;;;;;15.99;75.04;96686.95;1680782;84;21099;-80
2021/09/25 07:36:02;;;;;;;7.80;6.05;;;;;;;15.98;75.07;96689.28;1687533;84;21023;-81
2021/09/25 07:38:28;;;;;;;6.75;5.78;;;;;;;16.01;75.30;96689.37;1630888;87;21008;-82
2021/09/25 07:40:56;;;;;;;7.47;5.95;;;;;;;16.06;75.14;96686.41;1628718;86;21085;-81
2021/09/25 07:43:23;;;;;;;6.75;5.53;;;;;;;16.12;75.02;96689.53;1695175;84;21036;-81
2021/09/25 07:45:50;;;;;;;7.08;6.37;;;;;;;16.18;74.74;96694.43;1680463;84;20988;-83
2021/09/25 07:48:16;;;;;;;6.00;5.40;;;;;;;16.21;74.66;96697.94;1669656;84;21438;-83
2021/09/25 07:50:42;;;;;;;7.03;5.20;;;;;;;16.24;74.21;96694.89;1691829;83;21137;-83
2021/09/25 07:53:08;;;;;;;6.75;5.55;;;;;;;16.28;74.13;96696.61;1698108;84;21045;-83
2021/09/25 07:55:34;;;;;;;6.67;5.92;;;;;;;16.35;74.15;96699.99;1674980;84;21054;-83
2021/09/25 07:58:00;;;;;;;6.40;5.60;;;;;;;16.45;74.24;96702.97;1699828;84;21039;-83
2021/09/25 08:00:26;;;;;;;10.40;7.03;;;;;;;16.54;73.95;96703.52;1686837;84;21518;-83
2021/09/25 08:02:53;;;;;;;6.75;6.08;;;;;;;16.65;74.48;96698.41;1685631;84;22765;-80
2021/09/25 08:05:19;;;;;;;6.58;5.90;;;;;;;16.71;73.96;96696.27;1676739;84;21110;-80
2021/09/25 08:07:45;;;;;;;9.03;6.33;;;;;;;16.74;73.45;96701.08;1676871;84;21580;-81
2021/09/25 08:10:14;;;;;;;8.88;6.50;;;;;;;16.77;73.65;96698.06;1687527;83;21080;-81
2021/09/25 08:12:40;;;;;;;7.90;7.10;;;;;;;16.85;72.69;96696.17;1682740;84;21057;-82
2021/09/25 08:15:07;;;;;;;6.45;5.78;;;;;;;16.92;73.00;96703.48;1630995;86;21057;-81
2021/09/25 08:17:33;;;;;;;10.70;9.65;;;;;;;16.98;73.01;96698.70;1664768;84;21541;-81
2021/09/25 08:19:59;;;;;;;6.97;6.30;;;;;;;16.99;72.55;96699.80;1676475;84;21119;-82
2021/09/25 08:22:25;;;;;;;8.33;6.78;;;;;;;17.04;72.90;96703.09;1686507;84;21043;-82
2021/09/25 08:24:51;;;;;;;30.70;27.35;;;;;;;17.06;72.31;96707.10;1671603;84;21026;-82
2021/09/25 08:27:16;;;;;;;9.75;7.33;;;;;;;17.11;72.70;96706.48;1669387;84;21076;-82
2021/09/25 08:29:42;;;;;;;21.50;17.02;;;;;;;17.20;72.35;96705.17;1697889;84;21091;-82
2021/09/25 08:32:09;;;;;;;20.27;14.53;;;;;;;17.28;72.37;96711.48;1667653;84;21122;-82
2021/09/25 08:34:35;;;;;;;14.83;12.25;;;;;;;17.37;72.32;96710.68;1682876;84;21158;-81
2021/09/25 08:37:00;;;;;;;12.30;10.85;;;;;;;17.44;72.70;96714.06;1683372;83;21036;-82
2021/09/25 08:39:26;;;;;;;8.15;7.08;;;;;;;17.52;72.39;96709.83;1670787;84;21394;-82
2021/09/25 08:41:53;;;;;;;8.45;7.00;;;;;;;17.56;72.20;96710.19;1659799;84;20994;-82
2021/09/25 08:44:20;;;;;;;10.90;9.80;;;;;;;17.37;71.22;96683.11;1681042;84;21124;-82
2021/09/25 08:46:46;;;;;;;10.13;9.13;;;;;;;17.55;71.39;96707.27;1658875;85;21123;-82
2021/09/25 08:49:12;;;;;;;11.95;10.75;;;;;;;17.61;71.66;96710.37;1669692;84;21095;-82
2021/09/25 08:51:38;;;;;;;7.90;7.10;;;;;;;17.67;71.38;96715.55;1682839;84;22113;-82
2021/09/25 08:54:04;;;;;;;8.23;7.40;;;;;;;17.72;71.18;96716.73;1674985;83;21098;-82
2021/09/25 08:56:30;;;;;;;7.92;6.70;;;;;;;17.76;71.51;96714.79;1666561;85;21091;-82
2021/09/25 08:58:57;;;;;;;5.90;5.30;;;;;;;17.78;70.73;96718.52;1669539;84;21021;-82
2021/09/25 09:01:25;;;;;;;6.22;5.47;;;;;;;17.79;70.28;96715.66;1675438;83;21048;-81
2021/09/25 09:03:52;;;;;;;6.47;5.87;;;;;;;17.78;70.32;96718.00;1671813;84;21486;-81
2021/09/25 09:06:33;;;;;;;8.53;6.17;;;;;;;17.82;70.91;96721.79;1693887;84;21046;-81
2021/09/25 09:09:03;;;;;;;7.97;7.17;;;;;;;17.88;70.95;96730.10;1684718;84;21051;-82
2021/09/25 09:11:29;;;;;;;6.90;6.05;;;;;;;17.97;71.06;96727.48;1691042;84;21089;-82
2021/09/25 09:14:00;;;;;;;6.60;5.90;;;;;;;18.04;70.65;96725.28;1674645;84;21095;-82
2021/09/25 09:16:29;;;;;;;9.50;6.45;;;;;;;18.11;70.74;96729.97;1692065;84;21029;-83
2021/09/25 09:18:57;;;;;;;7.10;6.35;;;;;;;18.15;71.00;96727.19;1691688;84;21410;-82
2021/09/25 09:21:26;;;;;;;9.28;7.40;;;;;;;18.22;70.79;96729.20;1697200;84;21017;-81
2021/09/25 09:24:07;;;;;;;6.95;6.25;;;;;;;18.30;70.88;96731.55;1684821;84;21017;-82
2021/09/25 09:26:39;;;;;;;8.10;7.17;;;;;;;18.36;70.16;96730.65;1688675;84;21004;-81
2021/09/25 09:29:06;;;;;;;8.80;6.85;;;;;;;18.42;70.20;96732.41;1691249;84;21110;-82
2021/09/25 09:31:33;;;;;;;6.67;5.95;;;;;;;18.49;70.82;96731.80;1642343;84;21495;-81
2021/09/25 09:34:03;;;;;;;5.53;5.03;;;;;;;18.54;69.93;96733.24;1692668;84;21099;-82
2021/09/25 09:36:38;;;;;;;6.80;6.08;;;;;;;18.62;69.58;96729.51;1681666;84;21064;-81
2021/09/25 09:39:15;;;;;;;6.10;5.25;;;;;;;18.70;69.46;96732.36;1688269;84;21367;-81
2021/09/25 09:41:50;;;;;;;6.28;5.65;;;;;;;18.80;69.86;96732.63;1693958;84;21010;-81
2021/09/25 09:44:28;;;;;;;7.67;5.97;;;;;;;18.89;70.04;96737.36;1692253;84;21101;-81
2021/09/25 09:46:57;;;;;;;6.95;6.28;;;;;;;18.95;69.00;96747.49;1651811;85;21020;-81
2021/09/25 09:49:29;;;;;;;5.40;4.85;;;;;;;18.96;68.59;96737.25;1691010;83;21072;-81
2021/09/25 09:52:07;;;;;;;5.95;5.25;;;;;;;19.02;69.04;96734.22;1667493;84;21032;-81
2021/09/25 09:54:36;;;;;;;6.05;5.40;;;;;;;19.05;68.45;96734.59;1677075;85;21446;-81
2021/09/25 09:57:11;;;;;;;7.40;6.70;;;;;;;19.09;69.05;96733.09;1672778;85;21047;-81
2021/09/25 09:59:38;;;;;;;6.90;5.83;;;;;;;19.18;69.24;96733.03;1638773;87;21124;-81
2021/09/25 10:02:05;;;;;;;5.92;5.03;;;;;;;19.26;69.28;96732.43;1649088;86;21127;-81
2021/09/25 10:04:31;;;;;;;10.72;9.55;;;;;;;19.31;69.76;96733.34;1666892;83;21038;-82
2021/09/25 10:06:57;;;;;;;10.58;9.38;;;;;;;19.32;69.45;96732.31;1672355;84;21013;-82
2021/09/25 10:09:27;;;;;;;10.05;6.70;;;;;;;19.33;68.95;96731.28;1693921;84;20996;-81
2021/09/25 10:11:56;;;;;;;7.15;6.15;;;;;;;19.30;68.52;96737.53;1690186;84;21048;-82
2021/09/25 10:14:25;;;;;;;8.40;5.95;;;;;;;19.30;68.77;96729.63;1685538;84;21411;-83
2021/09/25 10:16:52;;;;;;;6.35;5.75;;;;;;;19.34;68.70;96734.72;1677167;84;21799;-82
2021/09/25 10:19:21;;;;;;;12.47;8.00;;;;;;;19.37;69.41;96735.60;1677706;84;20984;-81
2021/09/25 10:21:50;;;;;;;6.08;5.12;;;;;;;19.40;68.38;96730.67;1667541;84;21091;-81
2021/09/25 10:24:24;;;;;;;6.30;4.70;;;;;;;19.46;69.13;96724.98;1673178;84;21021;-85
2021/09/25 10:26:50;;;;;;;8.63;5.75;;;;;;;19.51;67.71;96730.37;1647933;85;21171;-83
2021/09/25 10:29:19;;;;;;;5.30;4.70;;;;;;;19.48;67.57;96732.15;1662356;84;21455;-84
2021/09/25 10:31:46;;;;;;;7.12;5.72;;;;;;;19.47;67.11;96731.34;1676611;84;21071;-84
2021/09/25 10:34:19;;;;;;;6.65;5.95;;;;;;;19.47;67.11;96731.86;1671890;84;21027;-84
2021/09/25 10:36:51;;;;;;;7.75;6.40;;;;;;;19.45;67.37;96729.46;1658049;86;21116;-84
2021/09/25 10:39:36;;;;;;;5.90;5.33;;;;;;;19.42;66.36;96727.80;1686915;84;21123;-83
2021/09/25 10:42:13;;;;;;;9.15;4.90;;;;;;;19.43;67.27;96722.81;1612320;87;21457;-83
2021/09/25 10:44:48;;;;;;;8.63;6.12;;;;;;;19.45;67.26;96719.44;1678958;83;21080;-83
2021/09/25 10:47:20;;;;;;;6.00;4.42;;;;;;;19.44;66.42;96723.91;1638465;86;21039;-83
2021/09/25 10:49:53;;;;;;;4.35;3.95;;;;;;;19.47;67.54;96730.55;1620769;87;21107;-83
2021/09/25 10:52:26;;;;;;;11.30;6.60;;;;;;;19.50;64.42;96732.20;1682127;83;21044;-83
2021/09/25 10:55:23;;;;;;;6.37;4.25;;;;;;;19.45;66.79;96739.20;1685710;84;21419;-83
2021/09/25 10:58:15;;;;;;;6.53;5.08;;;;;;;19.47;66.04;96735.81;1691263;84;21133;-83
2021/09/25 11:01:03;;;;;;;6.47;5.70;;;;;;;19.48;66.38;96730.83;1682669;84;20997;-83
2021/09/25 11:03:52;;;;;;;9.48;7.22;;;;;;;19.52;66.41;96730.65;1699390;84;21365;-83
2021/09/25 11:06:44;;;;;;;11.33;8.53;;;;;;;19.60;67.19;96729.55;1677906;84;21491;-84
2021/09/25 11:09:40;;;;;;;17.17;11.22;;;;;;;19.66;66.50;96729.42;1693201;83;21053;-83
2021/09/25 11:12:10;;;;;;;9.23;6.87;;;;;;;19.68;65.97;96733.94;1685112;84;21456;-83
2021/09/25 11:14:45;;;;;;;11.05;7.97;;;;;;;19.71;65.92;96728.75;1694761;84;21096;-83
2021/09/25 11:17:24;;;;;;;7.67;6.87;;;;;;;19.73;66.23;96735.39;1663651;84;21115;-83
2021/09/25 11:19:55;;;;;;;8.38;7.12;;;;;;;19.76;64.99;96726.22;1670155;84;21028;-83
2021/09/25 11:22:31;;;;;;;11.97;9.28;;;;;;;19.69;65.46;96718.95;1689607;83;21143;-88
2021/09/25 11:25:05;;;;;;;9.00;7.50;;;;;;;19.69;65.66;96721.59;1675926;84;21378;-83
2021/09/25 11:27:37;;;;;;;6.03;5.42;;;;;;;19.72;65.69;96716.66;1681896;84;21004;-83
2021/09/25 11:30:15;;;;;;;;;;;;;;;19.72;64.82;96716.66;1695115;84;21356;-85
2021/09/25 11:32:56;;;;;;;5.65;4.20;;;;;;;19.57;62.03;96716.32;1677716;83;20149;-84